createdAt,value
2023-11-19T00:00:05.657Z,100342.69
2023-11-19T00:00:37.564Z,100345.50
2023-11-19T00:01:09.690Z,100336.59
2023-11-19T00:01:41.958Z,100346.03
2023-11-19T00:02:14.160Z,100337.31
2023-11-19T00:02:46.317Z,100337.22
2023-11-19T00:03:18.978Z,100341.41
2023-11-19T00:03:51.587Z,100342.34
2023-11-19T00:04:24.121Z,100339.94
2023-11-19T00:04:56.237Z,100343.06
2023-11-19T00:05:28.948Z,100338.00
2023-11-19T00:06:01.197Z,100340.50
2023-11-19T00:06:33.326Z,100343.50
2023-11-19T00:07:07.710Z,100338.81
2023-11-19T00:07:42.807Z,100339.66
2023-11-19T00:08:15.037Z,100339.75
2023-11-19T00:08:47.269Z,100341.38
2023-11-19T00:09:19.516Z,100339.50
2023-11-19T00:09:51.599Z,100341.22
2023-11-19T00:10:23.778Z,100329.84
2023-11-19T00:10:56.100Z,100332.94
2023-11-19T00:11:28.377Z,100321.47
2023-11-19T00:12:01.469Z,100321.06
2023-11-19T00:12:33.618Z,100322.28
2023-11-19T00:13:05.800Z,100335.16
2023-11-19T00:13:37.794Z,100332.06
2023-11-19T00:14:09.932Z,100326.63
2023-11-19T00:15:15.104Z,100324.22
2023-11-19T00:15:48.798Z,100323.19
2023-11-19T00:16:20.976Z,100332.56
2023-11-19T00:16:53.362Z,100320.97
2023-11-19T00:17:25.573Z,100326.38
2023-11-19T00:18:00.298Z,100323.13
2023-11-19T00:18:34.213Z,100324.81
2023-11-19T00:19:06.777Z,100324.28
2023-11-19T00:19:38.785Z,100318.81
2023-11-19T00:20:11.397Z,100326.84
2023-11-19T00:20:45.962Z,100324.03
2023-11-19T00:21:17.976Z,100315.97
2023-11-19T00:21:50.024Z,100324.38
2023-11-19T00:22:23.260Z,100320.19
2023-11-19T00:22:55.381Z,100325.31
2023-11-19T00:23:27.335Z,100328.75
2023-11-19T00:23:59.689Z,100334.31
2023-11-19T00:24:31.832Z,100333.47
2023-11-19T00:25:04.757Z,100337.22
2023-11-19T00:25:36.753Z,100336.56
2023-11-19T00:26:08.792Z,100335.59
2023-11-19T00:26:40.877Z,100343.69
2023-11-19T00:27:12.817Z,100349.09
2023-11-19T00:27:46.153Z,100354.06
2023-11-19T00:28:18.201Z,100357.66
2023-11-19T00:28:50.259Z,100354.72
2023-11-19T00:29:22.188Z,100358.16
2023-11-19T00:29:54.181Z,100364.47
2023-11-19T00:30:26.204Z,100364.13
2023-11-19T00:30:58.219Z,100363.53
2023-11-19T00:31:30.381Z,100363.44
2023-11-19T00:32:02.487Z,100358.38
2023-11-19T00:32:34.768Z,100355.16
2023-11-19T00:33:06.769Z,100358.47
2023-11-19T00:33:49.944Z,100355.03
2023-11-19T00:34:23.906Z,100357.09
2023-11-19T00:34:55.871Z,100362.81
2023-11-19T00:35:27.905Z,100352.56
2023-11-19T00:35:59.852Z,100356.00
2023-11-19T00:36:31.796Z,100351.41
2023-11-19T00:37:05.215Z,100349.59
2023-11-19T00:37:37.301Z,100355.69
2023-11-19T00:38:09.347Z,100354.22
2023-11-19T00:38:41.401Z,100356.34
2023-11-19T00:39:16.178Z,100354.13
2023-11-19T00:39:48.216Z,100357.19
2023-11-19T00:40:23.118Z,100355.16
2023-11-19T00:40:55.153Z,100362.16
2023-11-19T00:41:27.113Z,100353.97
2023-11-19T00:41:58.987Z,100351.47
2023-11-19T00:42:30.897Z,100354.88
2023-11-19T00:43:02.911Z,100344.31
2023-11-19T00:43:35.295Z,100352.44
2023-11-19T00:44:07.224Z,100362.31
2023-11-19T00:44:39.153Z,100352.34
2023-11-19T00:45:11.787Z,100365.41
2023-11-19T00:45:44.368Z,100358.81
2023-11-19T00:46:16.472Z,100362.22
2023-11-19T00:46:48.498Z,100358.19
2023-11-19T00:47:23.462Z,100370.13
2023-11-19T00:47:55.496Z,100373.53
2023-11-19T00:48:28.105Z,100365.03
2023-11-19T00:49:02.161Z,100373.88
2023-11-19T00:49:34.109Z,100368.44
2023-11-19T00:50:06.618Z,100374.78
2023-11-19T00:50:39.630Z,100377.56
2023-11-19T00:51:13.407Z,100374.47
2023-11-19T00:52:04.006Z,100378.22
2023-11-19T00:52:36.049Z,100383.50
2023-11-19T00:53:08.308Z,100380.09
2023-11-19T00:53:40.233Z,100380.09
2023-11-19T00:54:12.160Z,100377.03
2023-11-19T00:54:44.700Z,100382.94
2023-11-19T00:55:16.891Z,100369.63
2023-11-19T00:55:48.947Z,100379.44
2023-11-19T00:56:21.180Z,100379.25
2023-11-19T00:56:53.954Z,100386.09
2023-11-19T00:57:27.754Z,100377.94
2023-11-19T00:57:59.859Z,100378.00
2023-11-19T00:58:32.081Z,100372.69
2023-11-19T00:59:05.081Z,100373.56
2023-11-19T00:59:37.247Z,100367.41
2023-11-19T01:00:28.764Z,100364.84
2023-11-19T01:01:01.150Z,100353.59
2023-11-19T01:01:33.235Z,100356.25
2023-11-19T01:02:07.509Z,100356.06
2023-11-19T01:02:39.751Z,100359.47
2023-11-19T01:03:13.034Z,100349.16
2023-11-19T01:03:45.272Z,100353.28
2023-11-19T01:04:17.526Z,100355.84
2023-11-19T01:04:49.698Z,100346.53
2023-11-19T01:05:25.487Z,100345.69
2023-11-19T01:05:57.505Z,100347.28
2023-11-19T01:06:32.972Z,100353.28
2023-11-19T01:07:06.187Z,100352.16
2023-11-19T01:07:38.269Z,100353.94
2023-11-19T01:08:10.453Z,100354.72
2023-11-19T01:08:45.617Z,100356.34
2023-11-19T01:09:17.559Z,100356.59
2023-11-19T01:09:49.496Z,100367.69
2023-11-19T01:10:21.879Z,100363.13
2023-11-19T01:10:54.344Z,100360.41
2023-11-19T01:11:26.986Z,100365.59
2023-11-19T01:11:59.510Z,100364.31
2023-11-19T01:12:32.519Z,100359.41
2023-11-19T01:13:07.027Z,100359.59
2023-11-19T01:13:38.960Z,100359.91
2023-11-19T01:14:10.827Z,100360.53
2023-11-19T01:14:42.778Z,100364.63
2023-11-19T01:15:14.770Z,100362.16
2023-11-19T01:15:46.942Z,100369.59
2023-11-19T01:16:20.315Z,100369.44
2023-11-19T01:16:52.356Z,100365.59
2023-11-19T01:17:24.333Z,100366.53
2023-11-19T01:17:56.316Z,100363.81
2023-11-19T01:18:28.223Z,100369.00
2023-11-19T01:19:12.281Z,100367.16
2023-11-19T01:19:51.565Z,100363.91
2023-11-19T01:20:23.879Z,100358.63
2023-11-19T01:20:55.758Z,100362.03
2023-11-19T01:21:27.719Z,100363.72
2023-11-19T01:21:59.714Z,100367.91
2023-11-19T01:22:31.696Z,100359.81
2023-11-19T01:23:03.950Z,100354.47
2023-11-19T01:23:36.783Z,100361.22
2023-11-19T01:24:10.989Z,100358.47
2023-11-19T01:24:42.885Z,100353.84
2023-11-19T01:25:15.206Z,100359.16
2023-11-19T01:25:47.166Z,100356.34
2023-11-19T01:26:19.135Z,100360.00
2023-11-19T01:26:51.157Z,100359.25
2023-11-19T01:27:23.035Z,100353.94
2023-11-19T01:27:54.956Z,100363.59
2023-11-19T01:28:26.994Z,100357.78
2023-11-19T01:28:58.902Z,100359.41
2023-11-19T01:29:30.814Z,100351.53
2023-11-19T01:30:07.387Z,100364.19
2023-11-19T01:30:39.354Z,100355.94
2023-11-19T01:31:12.301Z,100362.91
2023-11-19T01:31:46.859Z,100360.59
2023-11-19T01:32:18.989Z,100359.56
2023-11-19T01:32:51.012Z,100359.94
2023-11-19T01:33:22.956Z,100363.47
2023-11-19T01:33:54.975Z,100368.28
2023-11-19T01:34:27.032Z,100365.91
2023-11-19T01:34:59.388Z,100361.72
2023-11-19T01:35:31.396Z,100361.72
2023-11-19T01:36:03.447Z,100364.22
2023-11-19T01:36:36.017Z,100363.53
2023-11-19T01:37:10.612Z,100356.72
2023-11-19T01:37:42.679Z,100351.25
2023-11-19T01:38:14.633Z,100352.63
2023-11-19T01:38:46.581Z,100353.56
2023-11-19T01:39:18.662Z,100347.44
2023-11-19T01:39:59.203Z,100348.28
2023-11-19T01:40:31.540Z,100345.63
2023-11-19T01:41:06.358Z,100342.75
2023-11-19T01:41:40.352Z,100340.63
2023-11-19T01:42:13.419Z,100342.41
2023-11-19T01:42:45.408Z,100341.91
2023-11-19T01:43:48.443Z,100342.84
2023-11-19T01:44:20.380Z,100334.22
2023-11-19T01:45:00.428Z,100340.34
2023-11-19T01:45:33.956Z,100341.09
2023-11-19T01:46:07.433Z,100342.66
2023-11-19T01:46:42.347Z,100340.97
2023-11-19T01:47:15.409Z,100336.44
2023-11-19T01:47:47.452Z,100340.88
2023-11-19T01:48:19.521Z,100339.59
2023-11-19T01:48:51.817Z,100340.53
2023-11-19T01:49:24.079Z,100344.13
2023-11-19T01:49:58.322Z,100333.69
2023-11-19T01:50:31.504Z,100341.47
2023-11-19T01:51:05.325Z,100336.84
2023-11-19T01:51:37.424Z,100338.50
2023-11-19T01:52:09.585Z,100339.44
2023-11-19T01:52:42.346Z,100336.72
2023-11-19T01:53:14.322Z,100337.56
2023-11-19T01:53:46.408Z,100333.97
2023-11-19T01:54:18.394Z,100338.16
2023-11-19T01:54:51.558Z,100333.13
2023-11-19T01:55:23.676Z,100327.16
2023-11-19T01:55:56.882Z,100321.88
2023-11-19T01:56:29.264Z,100326.97
2023-11-19T01:57:02.244Z,100328.53
2023-11-19T01:57:34.373Z,100325.63
2023-11-19T01:58:06.375Z,100327.16
2023-11-19T01:58:39.557Z,100328.63
2023-11-19T01:59:15.018Z,100328.78
2023-11-19T01:59:47.073Z,100325.56
2023-11-19T02:00:20.536Z,100325.78
2023-11-19T02:00:53.323Z,100321.53
2023-11-19T02:01:25.701Z,100328.34
2023-11-19T02:02:33.249Z,100323.25
2023-11-19T02:03:10.625Z,100329.19
2023-11-19T02:03:43.352Z,100322.13
2023-11-19T02:04:15.899Z,100330.16
2023-11-19T02:04:50.802Z,100329.28
2023-11-19T02:05:22.956Z,100330.06
2023-11-19T02:05:55.101Z,100329.81
2023-11-19T02:06:28.523Z,100337.56
2023-11-19T02:07:00.765Z,100337.56
2023-11-19T02:07:33.440Z,100334.84
2023-11-19T02:08:05.460Z,100330.22
2023-11-19T02:08:38.497Z,100334.06
2023-11-19T02:09:10.906Z,100334.06
2023-11-19T02:09:45.802Z,100332.03
2023-11-19T02:10:20.485Z,100332.25
2023-11-19T02:10:53.244Z,100323.66
2023-11-19T02:11:30.482Z,100340.91
2023-11-19T02:12:02.551Z,100336.72
2023-11-19T02:12:37.727Z,100330.66
2023-11-19T02:13:11.805Z,100325.47
2023-11-19T02:13:45.025Z,100321.16
2023-11-19T02:14:17.449Z,100321.97
2023-11-19T02:14:49.447Z,100314.03
2023-11-19T02:15:21.320Z,100313.19
2023-11-19T02:15:53.514Z,100316.59
2023-11-19T02:16:25.627Z,100312.13
2023-11-19T02:16:57.812Z,100312.31
2023-11-19T02:17:33.326Z,100306.00
2023-11-19T02:18:24.187Z,100307.09
2023-11-19T02:18:56.144Z,100304.63
2023-11-19T02:19:28.394Z,100300.28
2023-11-19T02:20:00.379Z,100296.69
2023-11-19T02:20:32.345Z,100292.50
2023-11-19T02:21:04.462Z,100292.34
2023-11-19T02:21:36.480Z,100290.81
2023-11-19T02:22:08.398Z,100292.69
2023-11-19T02:22:40.428Z,100286.56
2023-11-19T02:23:14.604Z,100289.97
2023-11-19T02:23:46.830Z,100294.41
2023-11-19T02:24:27.206Z,100297.97
2023-11-19T02:25:07.627Z,100297.97
2023-11-19T02:25:41.829Z,100299.78
2023-11-19T02:26:27.395Z,100299.06
2023-11-19T02:27:16.251Z,100296.94
2023-11-19T02:28:01.181Z,100288.41
2023-11-19T02:28:34.550Z,100285.25
2023-11-19T02:29:08.968Z,100285.34
2023-11-19T02:29:41.124Z,100279.03
2023-11-19T02:30:15.903Z,100281.59
2023-11-19T02:30:47.916Z,100277.16
2023-11-19T02:31:21.658Z,100283.44
2023-11-19T02:31:54.493Z,100280.75
2023-11-19T02:32:32.144Z,100282.53
2023-11-19T02:33:06.963Z,100282.53
2023-11-19T02:33:39.953Z,100271.88
2023-11-19T02:34:13.750Z,100266.75
2023-11-19T02:34:45.724Z,100277.25
2023-11-19T02:35:17.697Z,100277.91
2023-11-19T02:35:49.621Z,100279.91
2023-11-19T02:36:22.918Z,100272.81
2023-11-19T02:36:55.003Z,100277.31
2023-11-19T02:37:27.174Z,100271.69
2023-11-19T02:38:05.151Z,100275.63
2023-11-19T02:38:37.519Z,100273.75
2023-11-19T02:39:13.837Z,100271.78
2023-11-19T02:39:46.018Z,100274.34
2023-11-19T02:40:18.639Z,100275.19
2023-11-19T02:40:50.576Z,100264.53
2023-11-19T02:41:22.509Z,100268.88
2023-11-19T02:41:54.542Z,100271.38
2023-11-19T02:42:26.465Z,100272.31
2023-11-19T02:42:59.180Z,100266.22
2023-11-19T02:43:32.529Z,100262.72
2023-11-19T02:44:06.660Z,100267.06
2023-11-19T02:44:38.622Z,100262.72
2023-11-19T02:45:15.759Z,100259.22
2023-11-19T02:45:48.045Z,100262.72
2023-11-19T02:46:20.688Z,100272.47
2023-11-19T02:46:52.749Z,100266.56
2023-11-19T02:47:25.336Z,100262.66
2023-11-19T02:47:57.311Z,100264.69
2023-11-19T02:48:29.332Z,100272.13
2023-11-19T02:49:01.679Z,100265.97
2023-11-19T02:49:33.628Z,100265.13
2023-11-19T02:50:08.426Z,100273.06
2023-11-19T02:50:40.361Z,100268.97
2023-11-19T02:51:12.338Z,100269.13
2023-11-19T02:51:44.449Z,100271.00
2023-11-19T02:52:16.953Z,100272.88
2023-11-19T02:52:49.733Z,100272.53
2023-11-19T02:53:23.498Z,100263.84
2023-11-19T02:53:55.525Z,100270.00
2023-11-19T02:54:28.583Z,100268.34
2023-11-19T02:55:01.141Z,100268.44
2023-11-19T02:55:38.764Z,100271.94
2023-11-19T02:56:21.130Z,100265.66
2023-11-19T02:56:56.620Z,100256.25
2023-11-19T02:57:33.344Z,100255.06
2023-11-19T02:58:13.094Z,100262.13
2023-11-19T02:58:46.130Z,100254.47
2023-11-19T02:59:28.451Z,100255.66
2023-11-19T03:00:00.822Z,100250.88
2023-11-19T03:00:37.121Z,100252.41
2023-11-19T03:01:20.595Z,100245.53
2023-11-19T03:01:53.578Z,100249.34
2023-11-19T03:02:35.052Z,100238.88
2023-11-19T03:03:19.766Z,100248.50
2023-11-19T03:03:58.949Z,100244.06
2023-11-19T03:04:31.986Z,100248.22
2023-11-19T03:05:04.600Z,100249.00
2023-11-19T03:05:36.663Z,100245.78
2023-11-19T03:06:10.600Z,100246.63
2023-11-19T03:06:42.752Z,100255.16
2023-11-19T03:07:14.950Z,100250.72
2023-11-19T03:07:47.040Z,100254.03
2023-11-19T03:08:53.993Z,100249.53
2023-11-19T03:09:25.956Z,100246.44
2023-11-19T03:09:57.895Z,100244.91
2023-11-19T03:10:30.550Z,100237.47
2023-11-19T03:11:03.084Z,100239.13
2023-11-19T03:11:35.037Z,100239.03
2023-11-19T03:12:07.795Z,100238.69
2023-11-19T03:12:40.175Z,100239.19
2023-11-19T03:13:16.770Z,100235.00
2023-11-19T03:13:48.778Z,100236.97
2023-11-19T03:14:20.730Z,100238.09
2023-11-19T03:14:52.763Z,100234.78
2023-11-19T03:15:24.689Z,100243.63
2023-11-19T03:15:56.703Z,100226.25
2023-11-19T03:16:28.673Z,100234.06
2023-11-19T03:17:00.789Z,100224.34
2023-11-19T03:17:32.759Z,100224.09
2023-11-19T03:18:04.688Z,100224.44
2023-11-19T03:18:36.647Z,100221.53
2023-11-19T03:19:08.568Z,100216.75
2023-11-19T03:19:40.562Z,100221.03
2023-11-19T03:20:18.167Z,100219.25
2023-11-19T03:20:51.050Z,100217.44
2023-11-19T03:21:35.397Z,100219.75
2023-11-19T03:22:08.589Z,100209.50
2023-11-19T03:22:42.750Z,100216.09
2023-11-19T03:23:15.694Z,100213.44
2023-11-19T03:23:47.644Z,100215.81
2023-11-19T03:24:19.675Z,100215.75
2023-11-19T03:25:12.932Z,100210.47
2023-11-19T03:25:44.970Z,100203.44
2023-11-19T03:26:16.841Z,100213.09
2023-11-19T03:26:51.605Z,100209.06
2023-11-19T03:27:23.575Z,100213.09
2023-11-19T03:27:55.641Z,100205.50
2023-11-19T03:28:27.706Z,100209.09
2023-11-19T03:28:59.673Z,100212.84
2023-11-19T03:29:31.571Z,100207.88
2023-11-19T03:30:07.623Z,100208.59
2023-11-19T03:30:39.668Z,100208.41
2023-11-19T03:31:12.146Z,100201.75
2023-11-19T03:31:44.495Z,100200.81
2023-11-19T03:32:16.716Z,100204.50
2023-11-19T03:32:48.975Z,100195.13
2023-11-19T03:33:20.935Z,100199.28
2023-11-19T03:33:52.877Z,100199.88
2023-11-19T03:34:24.820Z,100200.72
2023-11-19T03:34:57.024Z,100199.88
2023-11-19T03:35:29.246Z,100195.63
2023-11-19T03:36:01.182Z,100192.97
2023-11-19T03:36:35.062Z,100197.56
2023-11-19T03:37:07.052Z,100199.88
2023-11-19T03:37:40.824Z,100192.53
2023-11-19T03:38:12.823Z,100197.84
2023-11-19T03:38:44.778Z,100200.38
2023-11-19T03:39:16.719Z,100203.03
2023-11-19T03:39:48.670Z,100200.47
2023-11-19T03:40:20.701Z,100199.63
2023-11-19T03:40:52.836Z,100202.28
2023-11-19T03:41:24.856Z,100195.94
2023-11-19T03:41:56.777Z,100204.38
2023-11-19T03:42:28.677Z,100207.72
2023-11-19T03:43:00.697Z,100190.91
2023-11-19T03:43:32.873Z,100198.75
2023-11-19T03:44:04.973Z,100202.16
2023-11-19T03:44:36.918Z,100195.94
2023-11-19T03:45:12.034Z,100186.47
2023-11-19T03:45:43.985Z,100193.91
2023-11-19T03:46:22.329Z,100180.50
2023-11-19T03:46:54.430Z,100186.75
2023-11-19T03:47:26.424Z,100186.75
2023-11-19T03:47:58.433Z,100184.94
2023-11-19T03:48:30.425Z,100182.41
2023-11-19T03:49:02.339Z,100183.91
2023-11-19T03:49:34.326Z,100186.66
2023-11-19T03:50:08.692Z,100182.13
2023-11-19T03:50:40.647Z,100175.13
2023-11-19T03:51:16.383Z,100183.25
2023-11-19T03:51:48.345Z,100176.94
2023-11-19T03:52:21.393Z,100180.31
2023-11-19T03:52:53.899Z,100174.28
2023-11-19T03:53:25.921Z,100176.78
2023-11-19T03:53:57.892Z,100170.88
2023-11-19T03:54:30.176Z,100173.63
2023-11-19T03:55:02.437Z,100171.91
2023-11-19T03:55:34.452Z,100157.75
2023-11-19T03:56:06.950Z,100166.25
2023-11-19T03:56:38.937Z,100165.06
2023-11-19T03:57:13.859Z,100165.91
2023-11-19T03:57:45.983Z,100165.06
2023-11-19T03:58:18.008Z,100167.53
2023-11-19T03:58:49.892Z,100156.78
2023-11-19T03:59:21.801Z,100163.59
2023-11-19T03:59:53.760Z,100167.00
2023-11-19T04:00:25.678Z,100172.19
2023-11-19T04:00:57.587Z,100167.19
2023-11-19T04:01:29.634Z,100167.75
2023-11-19T04:02:02.009Z,100164.09
2023-11-19T04:02:34.032Z,100164.69
2023-11-19T04:03:06.163Z,100156.66
2023-11-19T04:03:38.142Z,100163.66
2023-11-19T04:04:10.145Z,100154.13
2023-11-19T04:04:42.269Z,100147.03
2023-11-19T04:05:14.266Z,100142.53
2023-11-19T04:05:46.271Z,100145.69
2023-11-19T04:06:18.386Z,100147.59
2023-11-19T04:06:50.333Z,100149.63
2023-11-19T04:07:22.503Z,100152.13
2023-11-19T04:07:54.456Z,100146.75
2023-11-19T04:08:26.388Z,100148.59
2023-11-19T04:08:58.515Z,100152.97
2023-11-19T04:09:31.189Z,100156.19
2023-11-19T04:10:03.385Z,100159.97
2023-11-19T04:10:35.430Z,100149.47
2023-11-19T04:11:07.429Z,100149.38
2023-11-19T04:11:40.447Z,100152.69
2023-11-19T04:12:12.415Z,100155.44
2023-11-19T04:12:44.479Z,100159.50
2023-11-19T04:13:16.990Z,100159.06
2023-11-19T04:13:49.002Z,100156.31
2023-11-19T04:14:20.933Z,100160.88
2023-11-19T04:15:28.042Z,100158.91
2023-11-19T04:15:59.996Z,100156.16
2023-11-19T04:16:32.128Z,100160.31
2023-11-19T04:17:04.324Z,100153.06
2023-11-19T04:17:36.860Z,100145.03
2023-11-19T04:18:10.343Z,100151.75
2023-11-19T04:18:42.401Z,100141.94
2023-11-19T04:19:14.513Z,100141.88
2023-11-19T04:19:46.446Z,100140.44
2023-11-19T04:20:18.425Z,100139.59
2023-11-19T04:20:51.004Z,100132.41
2023-11-19T04:21:24.162Z,100131.00
2023-11-19T04:21:56.301Z,100134.22
2023-11-19T04:22:28.320Z,100127.06
2023-11-19T04:23:01.900Z,100128.56
2023-11-19T04:23:33.814Z,100131.22
2023-11-19T04:24:06.494Z,100125.16
2023-11-19T04:24:38.618Z,100121.19
2023-11-19T04:25:10.971Z,100127.00
2023-11-19T04:25:43.055Z,100122.84
2023-11-19T04:26:15.139Z,100120.22
2023-11-19T04:26:47.897Z,100120.13
2023-11-19T04:27:19.796Z,100121.06
2023-11-19T04:27:51.755Z,100118.41
2023-11-19T04:28:23.686Z,100115.00
2023-11-19T04:28:55.676Z,100121.81
2023-11-19T04:29:27.701Z,100129.00
2023-11-19T04:29:59.715Z,100130.81
2023-11-19T04:30:33.006Z,100121.06
2023-11-19T04:31:05.478Z,100126.06
2023-11-19T04:31:37.485Z,100128.72
2023-11-19T04:32:10.169Z,100119.28
2023-11-19T04:32:42.153Z,100124.19
2023-11-19T04:33:14.078Z,100126.66
2023-11-19T04:33:46.500Z,100129.28
2023-11-19T04:34:18.399Z,100118.72
2023-11-19T04:34:50.358Z,100124.94
2023-11-19T04:35:22.435Z,100123.16
2023-11-19T04:35:54.364Z,100117.09
2023-11-19T04:36:26.252Z,100118.53
2023-11-19T04:36:58.288Z,100115.59
2023-11-19T04:37:30.282Z,100111.34
2023-11-19T04:38:02.254Z,100111.19
2023-11-19T04:38:34.237Z,100111.66
2023-11-19T04:39:10.658Z,100108.81
2023-11-19T04:39:42.628Z,100104.00
2023-11-19T04:40:14.840Z,100102.22
2023-11-19T04:40:47.052Z,100104.22
2023-11-19T04:41:19.015Z,100118.38
2023-11-19T04:41:52.835Z,100113.84
2023-11-19T04:42:25.581Z,100113.06
2023-11-19T04:42:57.579Z,100110.78
2023-11-19T04:43:29.636Z,100107.41
2023-11-19T04:44:01.630Z,100108.25
2023-11-19T04:44:33.566Z,100111.00
2023-11-19T04:45:07.369Z,100105.00
2023-11-19T04:45:40.500Z,100099.72
2023-11-19T04:46:12.468Z,100107.84
2023-11-19T04:46:45.547Z,100105.38
2023-11-19T04:47:17.649Z,100109.06
2023-11-19T04:47:49.745Z,100115.47
2023-11-19T04:48:21.754Z,100108.69
2023-11-19T04:48:53.759Z,100111.22
2023-11-19T04:49:28.245Z,100119.91
2023-11-19T04:50:00.539Z,100122.13
2023-11-19T04:50:32.609Z,100117.75
2023-11-19T04:51:06.704Z,100119.66
2023-11-19T04:51:43.201Z,100113.63
2023-11-19T04:52:15.693Z,100111.72
2023-11-19T04:52:47.668Z,100113.91
2023-11-19T04:53:19.775Z,100113.25
2023-11-19T04:53:51.791Z,100112.75
2023-11-19T04:54:24.299Z,100117.00
2023-11-19T04:54:56.230Z,100115.03
2023-11-19T04:55:28.165Z,100121.34
2023-11-19T04:56:00.481Z,100126.00
2023-11-19T04:56:32.603Z,100119.75
2023-11-19T04:57:04.703Z,100116.34
2023-11-19T04:57:36.601Z,100114.56
2023-11-19T04:58:08.573Z,100111.56
2023-11-19T04:58:40.966Z,100104.38
2023-11-19T04:59:13.000Z,100106.81
2023-11-19T04:59:44.949Z,100112.78
2023-11-19T05:00:17.687Z,100105.50
2023-11-19T05:00:49.947Z,100111.56
2023-11-19T05:01:21.881Z,100098.59
2023-11-19T05:01:53.831Z,100102.19
2023-11-19T05:02:26.006Z,100104.09
2023-11-19T05:02:58.001Z,100111.00
2023-11-19T05:03:30.383Z,100107.59
2023-11-19T05:04:03.462Z,100112.69
2023-11-19T05:04:35.570Z,100117.81
2023-11-19T05:05:07.765Z,100119.03
2023-11-19T05:05:39.839Z,100116.66
2023-11-19T05:06:11.766Z,100122.97
2023-11-19T05:06:43.771Z,100120.34
2023-11-19T05:07:15.775Z,100118.63
2023-11-19T05:07:47.720Z,100117.28
2023-11-19T05:08:19.666Z,100120.59
2023-11-19T05:08:51.657Z,100129.19
2023-11-19T05:09:23.666Z,100121.09
2023-11-19T05:09:56.053Z,100120.25
2023-11-19T05:10:27.995Z,100119.84
2023-11-19T05:11:00.581Z,100114.94
2023-11-19T05:11:32.609Z,100121.19
2023-11-19T05:12:04.727Z,100117.75
2023-11-19T05:12:36.688Z,100120.41
2023-11-19T05:13:08.752Z,100122.88
2023-11-19T05:13:40.785Z,100116.34
2023-11-19T05:14:13.076Z,100125.22
2023-11-19T05:14:50.702Z,100120.03
2023-11-19T05:15:23.144Z,100123.34
2023-11-19T05:15:55.037Z,100128.63
2023-11-19T05:16:27.683Z,100124.09
2023-11-19T05:16:59.751Z,100120.41
2023-11-19T05:17:31.769Z,100125.69
2023-11-19T05:18:05.952Z,100130.06
2023-11-19T05:18:39.093Z,100124.78
2023-11-19T05:19:12.093Z,100123.63
2023-11-19T05:19:44.047Z,100118.44
2023-11-19T05:20:16.617Z,100128.84
2023-11-19T05:20:48.630Z,100120.91
2023-11-19T05:21:20.530Z,100120.03
2023-11-19T05:21:53.809Z,100125.34
2023-11-19T05:22:27.334Z,100120.03
2023-11-19T05:23:01.533Z,100120.47
2023-11-19T05:23:35.078Z,100125.16
2023-11-19T05:24:07.421Z,100125.06
2023-11-19T05:24:40.864Z,100117.13
2023-11-19T05:25:13.043Z,100120.91
2023-11-19T05:25:46.964Z,100117.97
2023-11-19T05:26:23.456Z,100117.03
2023-11-19T05:26:55.432Z,100120.47
2023-11-19T05:27:28.233Z,100110.53
2023-11-19T05:28:00.321Z,100110.72
2023-11-19T05:28:32.472Z,100116.09
2023-11-19T05:29:04.416Z,100112.31
2023-11-19T05:29:36.384Z,100114.50
2023-11-19T05:30:08.851Z,100101.38
2023-11-19T05:30:41.807Z,100108.94
2023-11-19T05:31:13.838Z,100104.22
2023-11-19T05:31:45.870Z,100106.75
2023-11-19T05:32:17.874Z,100103.63
2023-11-19T05:32:49.826Z,100102.97
2023-11-19T05:33:22.108Z,100099.84
2023-11-19T05:33:54.092Z,100101.38
2023-11-19T05:34:26.396Z,100104.22
2023-11-19T05:34:58.521Z,100107.28
2023-11-19T05:35:30.511Z,100101.94
2023-11-19T05:36:04.631Z,100109.03
2023-11-19T05:36:36.631Z,100109.88
2023-11-19T05:37:11.058Z,100112.53
2023-11-19T05:37:42.990Z,100107.97
2023-11-19T05:38:33.460Z,100112.31
2023-11-19T05:39:06.076Z,100115.72
2023-11-19T05:39:38.065Z,100117.44
2023-11-19T05:40:16.345Z,100116.13
2023-11-19T05:40:49.942Z,100108.19
2023-11-19T05:41:22.001Z,100116.28
2023-11-19T05:41:53.966Z,100109.31
2023-11-19T05:42:25.892Z,100116.88
2023-11-19T05:42:57.819Z,100113.00
2023-11-19T05:43:29.892Z,100111.00
2023-11-19T05:44:02.718Z,100109.50
2023-11-19T05:44:35.674Z,100120.47
2023-11-19T05:45:10.661Z,100117.16
2023-11-19T05:45:42.556Z,100119.91
2023-11-19T05:46:49.569Z,100126.41
2023-11-19T05:47:21.984Z,100119.41
2023-11-19T05:47:54.177Z,100118.56
2023-11-19T05:48:28.457Z,100119.25
2023-11-19T05:49:00.414Z,100126.03
2023-11-19T05:49:32.399Z,100116.97
2023-11-19T05:50:07.170Z,100111.22
2023-11-19T05:50:39.172Z,100123.03
2023-11-19T05:51:11.606Z,100117.81
2023-11-19T05:51:43.747Z,100116.72
2023-11-19T05:52:15.815Z,100116.97
2023-11-19T05:52:47.928Z,100118.56
2023-11-19T05:53:20.479Z,100124.34
2023-11-19T05:53:53.514Z,100125.97
2023-11-19T05:54:25.539Z,100123.88
2023-11-19T05:54:57.647Z,100125.03
2023-11-19T05:55:30.187Z,100137.69
2023-11-19T05:56:05.220Z,100131.44
2023-11-19T05:56:37.371Z,100128.59
2023-11-19T05:57:10.712Z,100129.72
2023-11-19T05:58:18.185Z,100133.59
2023-11-19T05:58:50.716Z,100124.97
2023-11-19T05:59:24.060Z,100131.41
2023-11-19T05:59:56.258Z,100118.44
2023-11-19T06:00:28.597Z,100118.63
2023-11-19T06:01:02.382Z,100121.84
2023-11-19T06:01:36.268Z,100122.13
2023-11-19T06:02:08.324Z,100120.59
2023-11-19T06:02:40.441Z,100116.91
2023-11-19T06:03:12.717Z,100112.56
2023-11-19T06:03:44.914Z,100106.06
2023-11-19T06:04:17.269Z,100111.25
2023-11-19T06:04:49.326Z,100111.72
2023-11-19T06:05:21.314Z,100108.97
2023-11-19T06:05:53.809Z,100103.69
2023-11-19T06:06:25.678Z,100095.84
2023-11-19T06:06:57.607Z,100099.91
2023-11-19T06:07:29.622Z,100089.34
2023-11-19T06:08:01.917Z,100097.38
2023-11-19T06:08:34.200Z,100085.56
2023-11-19T06:09:42.563Z,100082.63
2023-11-19T06:10:17.793Z,100090.50
2023-11-19T06:10:51.841Z,100089.63
2023-11-19T06:11:23.775Z,100080.94
2023-11-19T06:11:58.156Z,100090.66
2023-11-19T06:12:30.095Z,100084.16
2023-11-19T06:13:03.993Z,100087.53
2023-11-19T06:13:35.970Z,100085.47
2023-11-19T06:14:08.634Z,100090.59
2023-11-19T06:14:41.530Z,100093.91
2023-11-19T06:15:13.437Z,100090.59
2023-11-19T06:15:45.745Z,100084.91
2023-11-19T06:16:17.996Z,100088.50
2023-11-19T06:17:39.825Z,100088.97
2023-11-19T06:18:15.928Z,100090.19
2023-11-19T06:18:47.978Z,100084.25
2023-11-19T06:19:20.194Z,100086.63
2023-11-19T06:19:52.299Z,100087.97
2023-11-19T06:20:24.260Z,100086.53
2023-11-19T06:20:56.207Z,100080.28
2023-11-19T06:21:28.260Z,100084.34
2023-11-19T06:22:00.243Z,100079.59